createdAt,value
2018-03-23T00:01:51.083Z,98595.74
2018-03-23T00:04:17.473Z,98588.88
2018-03-23T00:06:43.949Z,98584.23
2018-03-23T00:09:10.361Z,98572.70
2018-03-23T00:11:36.886Z,98564.08
2018-03-23T00:14:03.266Z,98549.66
2018-03-23T00:16:29.629Z,98519.26
2018-03-23T00:18:56.021Z,98522.89
2018-03-23T00:21:22.465Z,98515.65
2018-03-23T00:23:48.860Z,98505.13
2018-03-23T00:26:15.211Z,98507.80
2018-03-23T00:28:41.626Z,98492.23
2018-03-23T00:31:08.199Z,98493.34
2018-03-23T00:33:34.657Z,98483.26
2018-03-23T00:36:01.014Z,98468.78
2018-03-23T00:38:27.428Z,98472.38
2018-03-23T00:40:53.797Z,98462.62
2018-03-23T00:43:20.211Z,98446.31
2018-03-23T00:45:46.605Z,98444.89
2018-03-23T00:48:13.029Z,98431.36
2018-03-23T00:50:44.175Z,98399.03
2018-03-23T00:53:11.490Z,98411.12
2018-03-23T00:55:37.881Z,98413.70
2018-03-23T00:58:04.311Z,98402.04
2018-03-23T01:00:30.768Z,98388.59
2018-03-23T01:02:57.153Z,98392.69
2018-03-23T01:05:23.682Z,98388.17
2018-03-23T01:07:50.167Z,98389.66
2018-03-23T01:10:16.517Z,98371.05
2018-03-23T01:12:42.957Z,98363.00
2018-03-23T01:15:09.396Z,98356.41
2018-03-23T01:17:35.772Z,98343.69
2018-03-23T01:20:02.196Z,98346.52
2018-03-23T01:22:28.657Z,98344.80
2018-03-23T01:24:55.022Z,98338.31
2018-03-23T01:27:21.445Z,98351.77
2018-03-23T01:29:48.009Z,98358.34
2018-03-23T01:32:14.372Z,98358.94
2018-03-23T01:34:40.782Z,98335.92
2018-03-23T01:37:07.185Z,98326.53
2018-03-23T01:39:33.559Z,98326.75
2018-03-23T01:42:00.055Z,98341.38
2018-03-23T01:44:26.493Z,98338.99
2018-03-23T01:46:52.871Z,98300.39
2018-03-23T01:49:19.300Z,98314.97
2018-03-23T01:51:45.718Z,98335.94
2018-03-23T01:54:12.118Z,98356.77
2018-03-23T01:56:38.580Z,98390.39
2018-03-23T01:59:04.958Z,98376.51
2018-03-23T02:01:31.371Z,98412.03
2018-03-23T02:03:57.809Z,98443.00
2018-03-23T02:06:24.258Z,98423.62
2018-03-23T02:08:50.713Z,98412.06
2018-03-23T02:11:17.148Z,98380.00
2018-03-23T02:13:43.538Z,98362.66
2018-03-23T02:16:09.946Z,98397.70
2018-03-23T02:18:36.338Z,98399.69
2018-03-23T02:21:02.761Z,98368.80
2018-03-23T02:23:29.190Z,98387.81
2018-03-23T02:25:55.588Z,98420.01
2018-03-23T02:28:22.009Z,98432.31
2018-03-23T02:30:48.499Z,98412.72
2018-03-23T02:33:14.907Z,98423.59
2018-03-23T02:35:41.308Z,98398.77
2018-03-23T02:38:07.710Z,98385.20
2018-03-23T02:40:34.121Z,98380.58
2018-03-23T02:43:00.517Z,98376.28
2018-03-23T02:45:26.971Z,98379.38
2018-03-23T02:47:53.346Z,98374.69
2018-03-23T02:50:19.750Z,98381.88
2018-03-23T02:52:46.187Z,98397.66
2018-03-23T02:55:12.652Z,98409.23
2018-03-23T02:57:39.030Z,98381.70
2018-03-23T03:00:05.534Z,98364.06
2018-03-23T03:02:32.106Z,98361.93
2018-03-23T03:04:58.659Z,98373.78
2018-03-23T03:07:25.195Z,98346.79
2018-03-23T03:09:51.626Z,98332.06
2018-03-23T03:12:17.980Z,98333.74
2018-03-23T03:14:44.341Z,98337.56
2018-03-23T03:17:10.751Z,98320.14
2018-03-23T03:19:37.188Z,98324.94
2018-03-23T03:22:03.574Z,98338.27
2018-03-23T03:24:30.046Z,98332.72
2018-03-23T03:26:56.434Z,98334.25
2018-03-23T03:29:22.935Z,98328.77
2018-03-23T03:31:49.341Z,98330.76
2018-03-23T03:34:15.757Z,98320.20
2018-03-23T03:36:42.209Z,98311.62
2018-03-23T03:39:08.569Z,98296.20
2018-03-23T03:41:34.983Z,98281.05
2018-03-23T03:44:01.435Z,98282.52
2018-03-23T03:46:27.894Z,98294.41
2018-03-23T03:48:54.257Z,98276.77
2018-03-23T03:51:20.718Z,98271.52
2018-03-23T03:53:47.111Z,98269.21
2018-03-23T03:56:13.574Z,98274.38
2018-03-23T03:58:40.185Z,98267.59
2018-03-23T04:01:06.621Z,98268.25
2018-03-23T04:03:33.026Z,98260.88
2018-03-23T04:05:59.865Z,98262.21
2018-03-23T04:08:26.276Z,98268.76
2018-03-23T04:10:52.773Z,98282.25
2018-03-23T04:13:19.216Z,98276.45
2018-03-23T04:15:45.615Z,98269.70
2018-03-23T04:18:11.992Z,98255.89
2018-03-23T04:20:38.398Z,98237.19
2018-03-23T04:23:04.832Z,98234.30
2018-03-23T04:25:31.329Z,98231.36
2018-03-23T04:27:57.810Z,98216.75
2018-03-23T04:30:24.177Z,98220.95
2018-03-23T04:32:50.589Z,98221.78
2018-03-23T04:35:17.062Z,98212.30
2018-03-23T04:37:43.516Z,98192.67
2018-03-23T04:40:09.915Z,98183.38
2018-03-23T04:42:36.358Z,98197.02
2018-03-23T04:45:02.880Z,98186.42
2018-03-23T04:47:29.294Z,98188.72
2018-03-23T04:49:55.954Z,98187.91
2018-03-23T04:52:22.538Z,98175.17
2018-03-23T04:54:48.956Z,98170.20
2018-03-23T04:57:15.384Z,98175.48
2018-03-23T04:59:41.986Z,98182.39
2018-03-23T05:02:08.434Z,98179.05
2018-03-23T05:04:34.929Z,98181.97
2018-03-23T05:07:01.341Z,98180.50
2018-03-23T05:09:27.720Z,98183.38
2018-03-23T05:11:54.130Z,98184.39
2018-03-23T05:14:20.570Z,98183.38
2018-03-23T05:16:47.015Z,98172.83
2018-03-23T05:19:13.479Z,98181.68
2018-03-23T05:21:40.001Z,98180.56
2018-03-23T05:24:06.478Z,98175.49
2018-03-23T05:26:33.005Z,98174.53
2018-03-23T05:28:59.493Z,98180.34
2018-03-23T05:31:26.061Z,98171.25
2018-03-23T05:33:52.474Z,98177.22
2018-03-23T05:36:18.874Z,98173.88
2018-03-23T05:38:45.302Z,98166.38
2018-03-23T05:41:11.737Z,98160.09
2018-03-23T05:43:40.305Z,98156.22
2018-03-23T05:46:06.733Z,98156.52
2018-03-23T05:48:33.195Z,98160.88
2018-03-23T05:50:59.659Z,98159.99
2018-03-23T05:53:26.090Z,98154.66
2018-03-23T05:55:52.550Z,98164.32
2018-03-23T05:58:18.927Z,98163.28
2018-03-23T06:00:45.406Z,98167.18
2018-03-23T06:03:11.946Z,98164.34
2018-03-23T06:05:39.410Z,98174.95
2018-03-23T06:08:05.962Z,98171.05
2018-03-23T06:10:32.503Z,98180.39
2018-03-23T06:12:58.905Z,98186.66
2018-03-23T06:15:25.365Z,98182.09
2018-03-23T06:17:51.881Z,98174.70
2018-03-23T06:20:18.370Z,98169.41
2018-03-23T06:22:44.930Z,98176.47
2018-03-23T06:25:11.376Z,98171.83
2018-03-23T06:27:38.513Z,98173.63
2018-03-23T06:30:05.053Z,98176.89
2018-03-23T06:32:31.565Z,98175.30
2018-03-23T06:34:57.990Z,98176.77
2018-03-23T06:37:24.673Z,98166.16
2018-03-23T06:39:51.241Z,98166.25
2018-03-23T06:42:17.652Z,98167.21
2018-03-23T06:44:44.124Z,98172.32
2018-03-23T06:47:10.742Z,98171.69
2018-03-23T06:49:37.141Z,98180.84
2018-03-23T06:52:03.661Z,98172.32
2018-03-23T06:54:30.261Z,98178.29
2018-03-23T06:56:57.706Z,98176.55
2018-03-23T06:59:25.100Z,98181.27
2018-03-23T07:01:51.586Z,98178.08
2018-03-23T07:04:17.978Z,98183.14
2018-03-23T07:06:44.484Z,98189.28
2018-03-23T07:09:10.890Z,98180.34
2018-03-23T07:11:37.382Z,98177.11
2018-03-23T07:14:03.822Z,98186.41
2018-03-23T07:16:30.350Z,98185.67
2018-03-23T07:18:56.773Z,98181.24
2018-03-23T07:21:23.226Z,98178.91
2018-03-23T07:23:49.705Z,98178.98
2018-03-23T07:26:16.176Z,98168.94
2018-03-23T07:28:42.634Z,98170.39
2018-03-23T07:31:09.143Z,98165.52
2018-03-23T07:33:35.575Z,98162.38
2018-03-23T07:36:01.962Z,98177.78
2018-03-23T07:38:28.474Z,98178.38
2018-03-23T07:40:54.997Z,98176.47
2018-03-23T07:43:21.594Z,98179.51
2018-03-23T07:45:48.025Z,98183.38
2018-03-23T07:48:14.483Z,98176.93
2018-03-23T07:50:40.949Z,98168.98
2018-03-23T07:53:07.531Z,98168.44
2018-03-23T07:55:33.966Z,98164.55
2018-03-23T07:58:00.400Z,98168.22
2018-03-23T08:00:26.874Z,98176.61
2018-03-23T08:02:53.333Z,98180.25
2018-03-23T08:05:19.741Z,98190.57
2018-03-23T08:07:46.214Z,98193.62
2018-03-23T08:10:12.646Z,98190.15
2018-03-23T08:12:39.160Z,98194.45
2018-03-23T08:15:05.659Z,98178.75
2018-03-23T08:17:32.117Z,98180.13
2018-03-23T08:19:58.550Z,98176.41
2018-03-23T08:22:25.039Z,98178.42
2018-03-23T08:24:51.494Z,98181.86
2018-03-23T08:27:17.930Z,98183.94
2018-03-23T08:29:45.247Z,98175.44
2018-03-23T08:32:11.711Z,98173.48
2018-03-23T08:34:38.205Z,98174.59
2018-03-23T08:37:04.725Z,98178.66
2018-03-23T08:39:31.147Z,98177.80
2018-03-23T08:41:57.586Z,98175.58
2018-03-23T08:44:24.313Z,98177.36
2018-03-23T08:46:50.862Z,98170.66
2018-03-23T08:49:17.326Z,98172.78
2018-03-23T08:51:43.910Z,98172.63
2018-03-23T08:54:10.370Z,98171.47
2018-03-23T08:56:36.936Z,98168.44
2018-03-23T08:59:03.378Z,98152.86
2018-03-23T09:01:29.819Z,98148.33
2018-03-23T09:03:56.267Z,98139.77
2018-03-23T09:06:22.742Z,98136.00
2018-03-23T09:08:49.197Z,98153.14
2018-03-23T09:11:15.581Z,98152.29
2018-03-23T09:13:42.034Z,98134.98
2018-03-23T09:16:08.583Z,98139.58
2018-03-23T09:18:35.059Z,98129.27
2018-03-23T09:21:01.516Z,98127.16
2018-03-23T09:23:28.018Z,98123.66
2018-03-23T09:25:54.494Z,98128.66
2018-03-23T09:28:20.958Z,98128.70
2018-03-23T09:30:47.422Z,98133.20
2018-03-23T09:33:13.908Z,98135.14
2018-03-23T09:35:40.516Z,98115.97
2018-03-23T09:38:06.998Z,98118.23
2018-03-23T09:40:33.565Z,98113.18
2018-03-23T09:43:00.103Z,98113.56
2018-03-23T09:45:26.643Z,98120.59
2018-03-23T09:47:53.117Z,98111.97
2018-03-23T09:50:19.662Z,98104.31
2018-03-23T09:52:46.185Z,98104.52
2018-03-23T09:55:12.678Z,98097.18
2018-03-23T09:57:39.110Z,98095.97
2018-03-23T10:00:05.624Z,98094.93
2018-03-23T10:02:32.081Z,98096.40
2018-03-23T10:04:58.537Z,98093.52
2018-03-23T10:07:25.128Z,98096.23
2018-03-23T10:09:51.535Z,98105.72
2018-03-23T10:12:18.018Z,98115.09
2018-03-23T10:14:44.486Z,98119.00
2018-03-23T10:17:10.949Z,98114.86
2018-03-23T10:19:37.443Z,98110.77
2018-03-23T10:22:03.890Z,98103.37
2018-03-23T10:24:30.346Z,98107.44
2018-03-23T10:26:56.842Z,98109.59
2018-03-23T10:29:23.291Z,98092.19
2018-03-23T10:31:49.730Z,98094.67
2018-03-23T10:34:16.233Z,98097.36
2018-03-23T10:36:42.858Z,98096.73
2018-03-23T10:39:09.455Z,98090.56
2018-03-23T10:41:36.009Z,98086.39
2018-03-23T10:44:02.742Z,98087.34
2018-03-23T10:46:29.174Z,98092.78
2018-03-23T10:48:56.330Z,98094.23
2018-03-23T10:51:22.804Z,98086.67
2018-03-23T10:53:49.268Z,98086.28
2018-03-23T10:56:15.721Z,98082.97
2018-03-23T10:58:42.195Z,98085.42
2018-03-23T11:14:25.400Z,98055.74
2018-03-23T11:16:51.868Z,98052.92
2018-03-23T11:19:18.453Z,98054.47
2018-03-23T11:21:44.966Z,98051.30
2018-03-23T11:24:11.398Z,98052.10
2018-03-23T11:26:37.889Z,98050.16
2018-03-23T11:29:04.422Z,98054.47
2018-03-23T11:31:30.817Z,98051.72
2018-03-23T11:33:57.310Z,98048.86
2018-03-23T11:36:23.782Z,98049.37
2018-03-23T11:38:50.422Z,98039.22
2018-03-23T11:41:17.196Z,98040.63
2018-03-23T11:43:43.636Z,98038.33
2018-03-23T11:46:10.027Z,98039.57
2018-03-23T11:48:36.707Z,98036.78
2018-03-23T11:51:03.146Z,98027.73
2018-03-23T11:53:29.599Z,98018.94
2018-03-23T11:55:56.189Z,98019.22
2018-03-23T11:58:22.638Z,98011.67
2018-03-23T12:00:49.319Z,98005.66
2018-03-23T12:03:15.870Z,98005.07
2018-03-23T12:05:46.738Z,98011.37
2018-03-23T12:08:18.947Z,98020.48
2018-03-23T12:10:45.626Z,98018.67
2018-03-23T12:13:12.394Z,98013.95
2018-03-23T12:15:38.899Z,98016.28
2018-03-23T12:18:05.513Z,98010.53
2018-03-23T12:20:31.970Z,98010.43
2018-03-23T12:22:58.541Z,98012.23
2018-03-23T12:25:25.101Z,98005.59
2018-03-23T12:27:51.617Z,98005.55
2018-03-23T12:30:18.083Z,98005.84
2018-03-23T12:32:44.606Z,98000.19
2018-03-23T12:35:11.040Z,98005.64
2018-03-23T12:37:37.454Z,97998.56
2018-03-23T12:40:04.035Z,97996.47
2018-03-23T12:42:30.441Z,97995.70
2018-03-23T12:44:57.034Z,97996.02
2018-03-23T12:47:23.473Z,97996.19
2018-03-23T12:49:49.868Z,98002.77
2018-03-23T12:52:16.254Z,98000.42
2018-03-23T12:54:43.822Z,97995.14
2018-03-23T12:57:10.233Z,97994.61
2018-03-23T12:59:36.682Z,97991.46
2018-03-23T13:02:03.066Z,97989.18
2018-03-23T13:04:29.559Z,97985.22
2018-03-23T13:06:55.926Z,97981.20
2018-03-23T13:09:22.430Z,97979.98
2018-03-23T13:11:48.868Z,97982.39
2018-03-23T13:14:15.287Z,97978.91
2018-03-23T13:16:41.874Z,97981.61
2018-03-23T13:19:08.226Z,97979.23
2018-03-23T13:21:34.604Z,97981.58
2018-03-23T13:24:00.977Z,97989.64
2018-03-23T13:26:27.318Z,97981.95
2018-03-23T13:28:53.756Z,97980.98
2018-03-23T13:31:20.170Z,97968.97
2018-03-23T13:33:46.611Z,97972.27
2018-03-23T13:36:13.009Z,97966.16
2018-03-23T13:38:39.462Z,97964.69
2018-03-23T13:41:05.923Z,97971.70
2018-03-23T13:43:32.410Z,97977.31
2018-03-23T13:45:58.810Z,97973.34
2018-03-23T13:48:25.197Z,97974.96
2018-03-23T13:50:51.610Z,97972.77
2018-03-23T13:53:17.970Z,97973.00
2018-03-23T13:55:44.346Z,97981.39
2018-03-23T13:58:10.872Z,97970.93
2018-03-23T14:00:43.370Z,97972.97
2018-03-23T14:03:09.773Z,97973.31
2018-03-23T14:05:36.149Z,97980.98
2018-03-23T14:08:02.554Z,97985.36
2018-03-23T14:10:29.422Z,97987.79
2018-03-23T14:12:55.924Z,97993.17
2018-03-23T14:15:22.301Z,97992.09
2018-03-23T14:17:48.701Z,97993.92
2018-03-23T14:20:15.106Z,97999.62
2018-03-23T14:22:41.475Z,97996.58
2018-03-23T14:25:07.928Z,97995.22
2018-03-23T14:27:34.310Z,97990.28
2018-03-23T14:30:00.693Z,97994.02
2018-03-23T14:32:27.209Z,97991.58
2018-03-23T14:34:53.561Z,97995.11
2018-03-23T14:37:20.159Z,97993.12
2018-03-23T14:39:46.550Z,98001.48
2018-03-23T14:42:12.947Z,98007.16
2018-03-23T14:44:39.600Z,98003.33
2018-03-23T14:47:06.026Z,98007.83
2018-03-23T14:49:32.506Z,98008.25
2018-03-23T14:51:58.982Z,98005.33
2018-03-23T14:54:25.394Z,98003.95
2018-03-23T14:56:51.786Z,98005.23
2018-03-23T14:59:18.343Z,98004.62
2018-03-23T15:01:44.714Z,98008.12
2018-03-23T15:04:11.125Z,98006.66
2018-03-23T15:06:37.622Z,98010.83
2018-03-23T15:09:04.015Z,98007.22
2018-03-23T15:11:30.428Z,98006.95
2018-03-23T15:14:09.129Z,98013.46
2018-03-23T15:16:35.502Z,98020.85
2018-03-23T15:19:01.849Z,98020.59
2018-03-23T15:21:28.254Z,98013.98
2018-03-23T15:23:54.710Z,98011.28
2018-03-23T15:26:21.129Z,98014.59
2018-03-23T15:28:47.503Z,98010.98
2018-03-23T15:31:13.918Z,98009.87
2018-03-23T15:33:40.298Z,98017.30
2018-03-23T15:36:06.699Z,98007.78
2018-03-23T15:38:33.050Z,98014.08
2018-03-23T15:40:59.424Z,98023.23
2018-03-23T15:43:25.810Z,98020.42
2018-03-23T15:45:52.189Z,98022.64
2018-03-23T15:48:18.530Z,98028.78
2018-03-23T15:50:44.928Z,98026.20
2018-03-23T15:53:11.991Z,98023.88
2018-03-23T15:55:41.421Z,98024.63
2018-03-23T15:58:08.912Z,98025.67
2018-03-23T16:00:35.536Z,98030.77
2018-03-23T16:03:02.157Z,98033.06
2018-03-23T16:05:29.048Z,98035.03
2018-03-23T16:07:55.959Z,98035.36
2018-03-23T16:10:23.263Z,98044.83
2018-03-23T16:12:49.754Z,98044.37
2018-03-23T16:15:16.121Z,98041.87
2018-03-23T16:17:42.615Z,98048.54
2018-03-23T16:20:10.783Z,98045.45
2018-03-23T16:22:38.973Z,98043.61
2018-03-23T16:25:05.627Z,98043.44
2018-03-23T16:27:31.982Z,98050.38
2018-03-23T16:29:58.358Z,98047.42
2018-03-23T16:32:24.738Z,98049.39
2018-03-23T16:34:51.113Z,98048.50
2018-03-23T16:37:17.501Z,98049.86
2018-03-23T16:39:43.832Z,98047.50
2018-03-23T16:42:10.198Z,98045.89
2018-03-23T16:44:36.612Z,98053.52
2018-03-23T16:47:03.277Z,98048.86
2018-03-23T16:49:29.718Z,98058.95
2018-03-23T16:51:57.567Z,98056.17
2018-03-23T16:54:24.566Z,98059.17
2018-03-23T16:56:50.938Z,98062.55
2018-03-23T16:59:17.350Z,98058.70
2018-03-23T17:01:43.993Z,98060.41
2018-03-23T17:04:10.470Z,98065.45
2018-03-23T17:06:36.982Z,98064.78
2018-03-23T17:09:03.461Z,98061.98
2018-03-23T17:11:29.870Z,98066.23
2018-03-23T17:13:56.433Z,98065.95
2018-03-23T17:16:23.162Z,98068.80
2018-03-23T17:18:49.560Z,98059.36
2018-03-23T17:21:16.038Z,98064.78
2018-03-23T17:23:42.511Z,98066.19
2018-03-23T17:26:09.105Z,98068.23
2018-03-23T17:28:35.470Z,98077.06
2018-03-23T17:31:02.050Z,98073.17
2018-03-23T17:33:28.570Z,98072.80
2018-03-23T17:35:54.976Z,98073.22
2018-03-23T17:38:21.390Z,98076.64
2018-03-23T17:40:47.921Z,98070.34
2018-03-23T17:43:14.322Z,98069.19
2018-03-23T17:45:40.819Z,98066.71
2018-03-23T17:48:07.307Z,98068.48
2018-03-23T17:50:33.682Z,98070.96
2018-03-23T17:53:00.152Z,98075.54
2018-03-23T17:55:26.546Z,98073.27
2018-03-23T17:57:52.937Z,98069.84
2018-03-23T18:00:19.474Z,98070.27
2018-03-23T18:02:45.845Z,98069.69
2018-03-23T18:05:12.401Z,98076.20
2018-03-23T18:07:38.836Z,98074.26
2018-03-23T18:10:05.200Z,98071.25
2018-03-23T18:12:31.642Z,98069.41
2018-03-23T18:14:58.032Z,98069.77
2018-03-23T18:17:24.586Z,98065.56
2018-03-23T18:19:50.962Z,98064.83
2018-03-23T18:22:17.301Z,98072.80
2018-03-23T18:24:43.926Z,98068.53
2018-03-23T18:27:10.278Z,98075.17
2018-03-23T18:29:36.781Z,98072.70
2018-03-23T18:32:03.360Z,98072.06
2018-03-23T18:34:29.725Z,98071.81
2018-03-23T18:36:56.078Z,98067.11
2018-03-23T18:39:22.430Z,98066.13
2018-03-23T18:41:48.774Z,98058.99
2018-03-23T18:44:15.173Z,98060.59
2018-03-23T18:46:41.558Z,98067.09
2018-03-23T18:49:07.923Z,98067.17
2018-03-23T18:51:34.301Z,98065.13
2018-03-23T18:54:00.690Z,98076.88
2018-03-23T18:56:27.055Z,98083.95
2018-03-23T18:58:53.526Z,98071.28
2018-03-23T19:01:19.890Z,98079.65
2018-03-23T19:03:46.238Z,98080.53
2018-03-23T19:06:12.606Z,98079.05
2018-03-23T19:08:38.977Z,98076.68
2018-03-23T19:11:05.431Z,98077.47
2018-03-23T19:13:31.774Z,98095.27
2018-03-23T19:15:58.122Z,98085.94
2018-03-23T19:18:24.518Z,98090.64
2018-03-23T19:20:50.925Z,98093.21
2018-03-23T19:23:17.303Z,98072.48
2018-03-23T19:25:43.686Z,98064.55
2018-03-23T19:28:10.050Z,98082.20
2018-03-23T19:30:36.425Z,98092.34
2018-03-23T19:33:02.837Z,98102.55
2018-03-23T19:35:29.202Z,98094.45
2018-03-23T19:37:55.578Z,98091.53
2018-03-23T19:40:21.917Z,98095.55
2018-03-23T19:42:48.278Z,98108.34
2018-03-23T19:45:14.760Z,98105.69
2018-03-23T19:47:41.043Z,98114.35
2018-03-23T19:50:07.399Z,98110.28
2018-03-23T19:52:33.774Z,98118.37
2018-03-23T19:55:00.134Z,98122.18
2018-03-23T19:57:26.501Z,98115.42
2018-03-23T19:59:52.895Z,98117.16
2018-03-23T20:02:19.261Z,98107.81
2018-03-23T20:04:45.745Z,98100.75
2018-03-23T20:07:12.118Z,98100.21
2018-03-23T20:09:38.629Z,98099.02
2018-03-23T20:12:05.021Z,98085.98
2018-03-23T20:14:31.459Z,98076.47
2018-03-23T20:16:57.838Z,98083.09
2018-03-23T20:19:24.193Z,98084.33
2018-03-23T20:21:50.574Z,98084.55
2018-03-23T20:24:23.039Z,98086.24
2018-03-23T20:26:49.411Z,98079.83
2018-03-23T20:29:15.774Z,98077.56
2018-03-23T20:31:48.148Z,98073.45
2018-03-23T20:34:14.517Z,98083.79
2018-03-23T20:36:40.929Z,98086.48
2018-03-23T20:39:07.305Z,98089.80
2018-03-23T20:41:33.662Z,98084.05
2018-03-23T20:44:00.058Z,98085.58
2018-03-23T20:46:26.649Z,98088.27
2018-03-23T20:48:53.010Z,98088.33
2018-03-23T20:51:19.386Z,98090.30
2018-03-23T20:53:45.790Z,98079.75
2018-03-23T20:56:12.146Z,98078.00
2018-03-23T20:58:38.742Z,98078.80
2018-03-23T21:01:05.132Z,98071.20
2018-03-23T21:03:31.572Z,98083.61
2018-03-23T21:05:57.961Z,98082.16
2018-03-23T21:08:24.317Z,98093.20
2018-03-23T21:10:50.683Z,98093.84
2018-03-23T21:13:17.085Z,98092.09
2018-03-23T21:15:43.558Z,98094.10
2018-03-23T21:18:09.948Z,98089.59
2018-03-23T21:20:36.413Z,98087.97
2018-03-23T21:23:02.918Z,98081.33
2018-03-23T21:25:29.306Z,98081.73
2018-03-23T21:27:55.657Z,98079.83
2018-03-23T21:30:22.046Z,98079.73
2018-03-23T21:32:48.402Z,98077.23
2018-03-23T21:35:14.858Z,98080.66
2018-03-23T21:37:41.334Z,98076.92
2018-03-23T21:40:07.729Z,98076.53
2018-03-23T21:42:34.134Z,98070.20
2018-03-23T21:45:00.590Z,98070.20
2018-03-23T21:47:27.001Z,98072.59
2018-03-23T21:49:53.363Z,98066.00
2018-03-23T21:52:19.750Z,98065.66
2018-03-23T21:54:46.109Z,98069.59
2018-03-23T21:57:12.468Z,98072.38
2018-03-23T21:59:38.852Z,98068.58
2018-03-23T22:02:05.242Z,98067.61
2018-03-23T22:04:31.610Z,98072.48
2018-03-23T22:06:57.982Z,98064.20
2018-03-23T22:09:24.342Z,98065.61
2018-03-23T22:11:50.772Z,98072.75
2018-03-23T22:14:17.118Z,98072.55
2018-03-23T22:16:43.529Z,98074.94
2018-03-23T22:19:09.914Z,98074.38
2018-03-23T22:21:36.301Z,98072.73
2018-03-23T22:24:02.753Z,98069.66
2018-03-23T22:26:29.122Z,98078.74
2018-03-23T22:28:55.504Z,98077.34
2018-03-23T22:31:21.938Z,98081.53
2018-03-23T22:33:48.368Z,98082.10
2018-03-23T22:36:14.725Z,98086.36
2018-03-23T22:38:41.081Z,98085.30
2018-03-23T22:41:07.486Z,98090.23
2018-03-23T22:43:33.893Z,98096.40
2018-03-23T22:46:00.274Z,98093.75
2018-03-23T22:48:26.657Z,98086.80
2018-03-23T22:50:53.034Z,98094.86
2018-03-23T22:53:19.437Z,98093.80
2018-03-23T22:55:45.821Z,98084.55
2018-03-23T22:58:12.198Z,98091.64
2018-03-23T23:00:38.638Z,98088.60
2018-03-23T23:03:05.062Z,98089.34
2018-03-23T23:05:31.449Z,98090.58
2018-03-23T23:07:57.861Z,98086.97
2018-03-23T23:10:24.234Z,98087.55
2018-03-23T23:12:50.581Z,98085.97
2018-03-23T23:15:16.977Z,98077.81
2018-03-23T23:17:43.370Z,98080.78
2018-03-23T23:20:09.745Z,98077.82
2018-03-23T23:22:36.161Z,98076.21
2018-03-23T23:25:02.634Z,98073.94
2018-03-23T23:27:28.985Z,98070.78
2018-03-23T23:29:55.339Z,98082.11
2018-03-23T23:32:21.762Z,98069.23
2018-03-23T23:34:48.138Z,98067.67
2018-03-23T23:37:14.538Z,98068.81
2018-03-23T23:39:40.927Z,98067.87
2018-03-23T23:42:07.339Z,98058.35
2018-03-23T23:44:33.702Z,98062.76
2018-03-23T23:47:00.128Z,98063.56
2018-03-23T23:49:26.478Z,98069.83
2018-03-23T23:51:52.821Z,98067.30
2018-03-23T23:54:19.176Z,98064.75
2018-03-23T23:56:45.531Z,98074.20
2018-03-23T23:59:11.983Z,98078.76
